createdAt,value
2023-03-27T00:00:06.513Z,79.58
2023-03-27T00:01:06.595Z,79.78
2023-03-27T00:02:06.711Z,78.64
2023-03-27T00:03:06.977Z,78.85
2023-03-27T00:04:06.856Z,78.54
2023-03-27T00:05:06.915Z,79.06
2023-03-27T00:06:06.993Z,78.85
2023-03-27T00:07:07.080Z,78.85
2023-03-27T00:08:07.166Z,79.58
2023-03-27T00:09:07.246Z,79.27
2023-03-27T00:10:07.338Z,79.30
2023-03-27T00:11:07.408Z,79.61
2023-03-27T00:12:07.496Z,79.30
2023-03-27T00:13:07.591Z,79.58
2023-03-27T00:14:07.622Z,79.37
2023-03-27T00:15:07.702Z,79.20
2023-03-27T00:16:07.809Z,79.51
2023-03-27T00:17:07.856Z,79.61
2023-03-27T00:18:08.000Z,79.41
2023-03-27T00:19:08.004Z,79.41
2023-03-27T00:20:08.095Z,79.41
2023-03-27T00:21:08.177Z,78.78
2023-03-27T00:22:08.248Z,79.30
2023-03-27T00:23:08.361Z,78.89
2023-03-27T00:24:08.417Z,78.78
2023-03-27T00:25:08.497Z,78.92
2023-03-27T00:26:08.593Z,79.44
2023-03-27T00:27:08.662Z,79.65
2023-03-27T00:28:08.805Z,79.85
2023-03-27T00:29:08.843Z,80.16
2023-03-27T00:30:08.924Z,80.00
2023-03-27T00:31:09.025Z,80.10
2023-03-27T00:32:09.111Z,80.41
2023-03-27T00:33:09.231Z,80.52
2023-03-27T00:34:09.250Z,80.52
2023-03-27T00:35:09.335Z,80.83
2023-03-27T00:36:09.515Z,80.93
2023-03-27T00:37:09.482Z,81.14
2023-03-27T00:38:09.607Z,81.35
2023-03-27T00:39:09.654Z,81.45
2023-03-27T00:40:09.749Z,81.45
2023-03-27T00:41:09.840Z,81.49
2023-03-27T00:42:09.914Z,81.38
2023-03-27T00:43:10.010Z,81.70
2023-03-27T00:44:10.099Z,81.70
2023-03-27T00:45:10.306Z,81.59
2023-03-27T00:46:10.340Z,81.70
2023-03-27T00:47:10.351Z,81.90
2023-03-27T00:48:10.476Z,82.21
2023-03-27T00:49:10.509Z,82.32
2023-03-27T00:50:10.598Z,82.53
2023-03-27T00:51:10.679Z,82.32
2023-03-27T00:52:10.767Z,82.73
2023-03-27T00:53:10.868Z,82.73
2023-03-27T00:54:10.928Z,82.63
2023-03-27T00:55:10.998Z,82.53
2023-03-27T00:56:11.076Z,82.73
2023-03-27T00:57:11.196Z,82.77
2023-03-27T00:58:11.248Z,83.25
2023-03-27T00:59:11.288Z,83.18
2023-03-27T01:00:11.364Z,83.08
2023-03-27T01:01:11.487Z,83.29
2023-03-27T01:02:11.518Z,83.39
2023-03-27T01:03:11.712Z,83.60
2023-03-27T01:04:11.679Z,83.60
2023-03-27T01:05:11.775Z,83.70
2023-03-27T01:06:11.868Z,84.12
2023-03-27T01:07:11.959Z,84.01
2023-03-27T01:08:12.048Z,84.12
2023-03-27T01:09:20.521Z,84.27
2023-03-27T01:10:12.198Z,84.58
2023-03-27T01:11:12.252Z,84.68
2023-03-27T01:12:12.328Z,84.89
2023-03-27T01:13:12.455Z,85.10
2023-03-27T01:14:12.512Z,85.41
2023-03-27T01:15:12.562Z,85.51
2023-03-27T01:16:12.701Z,85.61
2023-03-27T01:17:12.747Z,85.55
2023-03-27T01:18:12.859Z,85.75
2023-03-27T01:19:12.908Z,86.07
2023-03-27T01:20:12.981Z,86.17
2023-03-27T01:21:13.054Z,86.69
2023-03-27T01:22:13.132Z,86.59
2023-03-27T01:23:13.233Z,86.69
2023-03-27T01:24:13.309Z,86.59
2023-03-27T01:25:13.386Z,86.69
2023-03-27T01:26:13.469Z,86.90
2023-03-27T01:27:13.533Z,87.11
2023-03-27T01:28:13.634Z,87.25
2023-03-27T01:29:13.695Z,87.21
2023-03-27T01:30:13.782Z,87.25
2023-03-27T01:31:13.921Z,87.46
2023-03-27T01:32:14.026Z,87.35
2023-03-27T01:33:14.034Z,87.32
2023-03-27T01:34:14.112Z,87.21
2023-03-27T01:35:14.189Z,87.15
2023-03-27T01:36:14.272Z,87.21
2023-03-27T01:37:14.348Z,87.35
2023-03-27T01:38:14.440Z,87.25
2023-03-27T01:39:14.505Z,87.25
2023-03-27T01:40:14.587Z,87.21
2023-03-27T01:41:14.661Z,87.01
2023-03-27T01:42:14.740Z,87.11
2023-03-27T01:43:14.845Z,87.32
2023-03-27T01:44:14.884Z,87.25
2023-03-27T01:45:14.968Z,87.15
2023-03-27T01:46:15.080Z,87.25
2023-03-27T01:47:15.092Z,87.25
2023-03-27T01:48:15.207Z,87.46
2023-03-27T01:49:15.240Z,87.77
2023-03-27T01:50:15.332Z,88.09
2023-03-27T01:51:15.385Z,87.77
2023-03-27T01:52:15.480Z,87.98
2023-03-27T01:53:15.563Z,88.09
2023-03-27T01:54:15.644Z,88.02
2023-03-27T01:55:15.727Z,88.23
2023-03-27T01:56:15.809Z,88.33
2023-03-27T01:57:15.925Z,88.33
2023-03-27T01:58:15.984Z,88.43
2023-03-27T01:59:16.054Z,88.54
2023-03-27T02:00:17.977Z,88.54
2023-03-27T02:01:16.230Z,88.43
2023-03-27T02:02:16.294Z,88.33
2023-03-27T02:03:16.382Z,88.43
2023-03-27T02:04:16.455Z,88.54
2023-03-27T02:05:16.568Z,88.54
2023-03-27T02:06:16.636Z,88.54
2023-03-27T02:07:16.690Z,88.54
2023-03-27T02:08:16.795Z,88.75
2023-03-27T02:09:16.848Z,88.85
2023-03-27T02:10:16.946Z,88.85
2023-03-27T02:11:17.006Z,89.06
2023-03-27T02:12:17.099Z,89.06
2023-03-27T02:13:17.173Z,89.06
2023-03-27T02:14:17.258Z,89.17
2023-03-27T02:15:23.587Z,89.06
2023-03-27T02:16:17.508Z,89.20
2023-03-27T02:17:17.506Z,89.27
2023-03-27T02:18:17.581Z,89.31
2023-03-27T02:19:17.643Z,89.20
2023-03-27T02:20:17.749Z,89.52
2023-03-27T02:21:17.813Z,89.41
2023-03-27T02:22:17.886Z,89.41
2023-03-27T02:23:17.973Z,89.31
2023-03-27T02:24:18.046Z,89.31
2023-03-27T02:25:18.110Z,89.52
2023-03-27T02:26:18.202Z,89.20
2023-03-27T02:27:18.281Z,89.20
2023-03-27T02:28:18.380Z,89.31
2023-03-27T02:29:18.402Z,89.31
2023-03-27T02:30:18.488Z,89.31
2023-03-27T02:31:33.929Z,89.20
2023-03-27T02:32:18.734Z,89.41
2023-03-27T02:33:18.772Z,89.41
2023-03-27T02:34:18.809Z,89.41
2023-03-27T02:35:18.886Z,89.20
2023-03-27T02:36:18.965Z,89.52
2023-03-27T02:37:19.035Z,89.52
2023-03-27T02:38:19.161Z,89.52
2023-03-27T02:39:19.187Z,89.41
2023-03-27T02:40:19.265Z,89.31
2023-03-27T02:41:19.341Z,89.31
2023-03-27T02:42:19.421Z,89.00
2023-03-27T02:43:19.513Z,89.10
2023-03-27T02:44:19.589Z,89.20
2023-03-27T02:45:19.660Z,89.20
2023-03-27T02:46:19.817Z,89.20
2023-03-27T02:47:19.814Z,89.10
2023-03-27T02:48:19.927Z,89.20
2023-03-27T02:49:19.956Z,89.41
2023-03-27T02:50:20.033Z,89.31
2023-03-27T02:51:20.102Z,89.20
2023-03-27T02:52:20.173Z,89.41
2023-03-27T02:53:20.452Z,89.41
2023-03-27T02:54:20.312Z,89.52
2023-03-27T02:55:20.409Z,89.52
2023-03-27T02:56:20.469Z,89.31
2023-03-27T02:57:20.542Z,89.31
2023-03-27T02:58:20.619Z,89.20
2023-03-27T02:59:20.672Z,89.31
2023-03-27T03:00:20.754Z,89.20
2023-03-27T03:01:20.862Z,89.27
2023-03-27T03:02:20.983Z,89.48
2023-03-27T03:03:21.081Z,89.58
2023-03-27T03:04:21.051Z,89.37
2023-03-27T03:05:21.129Z,89.17
2023-03-27T03:06:21.208Z,88.85
2023-03-27T03:07:21.290Z,88.75
2023-03-27T03:08:21.384Z,89.06
2023-03-27T03:09:21.472Z,88.85
2023-03-27T03:10:21.545Z,88.75
2023-03-27T03:11:21.621Z,88.85
2023-03-27T03:12:21.710Z,88.85
2023-03-27T03:13:21.803Z,88.75
2023-03-27T03:14:21.873Z,89.06
2023-03-27T03:15:21.974Z,89.06
2023-03-27T03:16:22.058Z,89.06
2023-03-27T03:17:22.107Z,88.85
2023-03-27T03:18:22.195Z,88.96
2023-03-27T03:19:22.273Z,89.06
2023-03-27T03:20:22.350Z,88.96
2023-03-27T03:21:22.451Z,88.96
2023-03-27T03:22:22.536Z,89.06
2023-03-27T03:23:22.608Z,89.06
2023-03-27T03:24:22.644Z,89.06
2023-03-27T03:25:22.719Z,89.06
2023-03-27T03:26:22.785Z,89.06
2023-03-27T03:27:22.906Z,88.96
2023-03-27T03:28:22.990Z,89.10
2023-03-27T03:29:23.046Z,89.10
2023-03-27T03:30:23.116Z,89.00
2023-03-27T03:31:23.258Z,88.89
2023-03-27T03:32:23.336Z,88.75
2023-03-27T03:33:23.370Z,88.64
2023-03-27T03:34:23.444Z,88.54
2023-03-27T03:35:23.554Z,88.33
2023-03-27T03:36:23.591Z,88.23
2023-03-27T03:37:23.672Z,88.27
2023-03-27T03:38:23.761Z,88.48
2023-03-27T03:39:23.857Z,88.58
2023-03-27T03:40:23.917Z,88.68
2023-03-27T03:41:23.997Z,88.79
2023-03-27T03:42:24.327Z,89.00
2023-03-27T03:43:24.184Z,89.20
2023-03-27T03:44:24.271Z,89.20
2023-03-27T03:45:24.341Z,89.31
2023-03-27T03:46:24.453Z,89.52
2023-03-27T03:47:24.557Z,89.52
2023-03-27T03:48:24.617Z,89.52
2023-03-27T03:49:24.684Z,89.62
2023-03-27T03:50:24.753Z,89.52
2023-03-27T03:51:24.832Z,89.62
2023-03-27T03:52:24.899Z,89.83
2023-03-27T03:53:24.989Z,89.62
2023-03-27T03:54:25.044Z,89.56
2023-03-27T03:55:25.120Z,89.66
2023-03-27T03:56:25.187Z,89.66
2023-03-27T03:57:25.274Z,89.76
2023-03-27T03:58:34.652Z,89.56
2023-03-27T03:59:25.440Z,89.76
2023-03-27T04:00:25.515Z,89.76
2023-03-27T04:01:25.606Z,89.66
2023-03-27T04:02:25.709Z,89.66
2023-03-27T04:03:25.886Z,89.66
2023-03-27T04:04:25.823Z,89.66
2023-03-27T04:05:25.893Z,89.66
2023-03-27T04:06:25.964Z,89.56
2023-03-27T04:07:26.036Z,89.52
2023-03-27T04:08:26.110Z,89.52
2023-03-27T04:09:26.188Z,89.62
2023-03-27T04:10:26.255Z,89.62
2023-03-27T04:11:26.328Z,89.66
2023-03-27T04:12:26.394Z,89.56
2023-03-27T04:13:26.487Z,89.45
2023-03-27T04:14:26.549Z,89.35
2023-03-27T04:15:26.626Z,89.35
2023-03-27T04:16:26.758Z,89.45
2023-03-27T04:17:26.973Z,89.35
2023-03-27T04:18:26.938Z,89.25
2023-03-27T04:19:27.509Z,89.66
2023-03-27T04:20:27.000Z,89.76
2023-03-27T04:21:27.073Z,89.76
2023-03-27T04:22:27.140Z,89.56
2023-03-27T04:23:27.240Z,89.50
2023-03-27T04:24:27.300Z,89.70
2023-03-27T04:25:27.377Z,89.60
2023-03-27T04:26:27.514Z,89.81
2023-03-27T04:27:27.516Z,89.91
2023-03-27T04:28:27.610Z,90.33
2023-03-27T04:29:27.672Z,90.22
2023-03-27T04:30:27.748Z,89.81
2023-03-27T04:31:27.858Z,89.81
2023-03-27T04:32:27.937Z,89.91
2023-03-27T04:33:30.609Z,90.01
2023-03-27T04:34:28.052Z,90.12
2023-03-27T04:35:28.144Z,90.12
2023-03-27T04:36:30.103Z,90.33
2023-03-27T04:37:28.299Z,90.12
2023-03-27T04:38:28.363Z,89.91
2023-03-27T04:39:28.443Z,89.81
2023-03-27T04:40:28.513Z,89.81
2023-03-27T04:41:28.606Z,90.01
2023-03-27T04:42:28.686Z,90.01
2023-03-27T04:43:28.768Z,90.12
2023-03-27T04:44:28.852Z,90.12
2023-03-27T04:45:28.904Z,90.12
2023-03-27T04:46:29.007Z,89.95
2023-03-27T04:47:29.098Z,90.06
2023-03-27T04:48:29.172Z,90.16
2023-03-27T04:49:29.238Z,90.26
2023-03-27T04:50:29.299Z,90.16
2023-03-27T04:51:29.369Z,90.26
2023-03-27T04:52:29.446Z,90.37
2023-03-27T04:53:29.528Z,90.26
2023-03-27T04:54:29.597Z,90.37
2023-03-27T04:55:29.676Z,90.37
2023-03-27T04:56:29.772Z,90.37
2023-03-27T04:57:29.844Z,90.37
2023-03-27T04:58:29.962Z,90.37
2023-03-27T04:59:30.001Z,90.37
2023-03-27T05:00:30.073Z,90.26
2023-03-27T05:01:30.192Z,90.47
2023-03-27T05:02:30.276Z,90.58
2023-03-27T05:03:30.373Z,90.68
2023-03-27T05:04:30.395Z,90.68
2023-03-27T05:05:30.469Z,90.68
2023-03-27T05:06:30.576Z,90.58
2023-03-27T05:07:30.662Z,90.47
2023-03-27T05:08:30.746Z,90.79
2023-03-27T05:09:30.793Z,91.00
2023-03-27T05:10:30.871Z,90.93
2023-03-27T05:11:30.931Z,90.83
2023-03-27T05:12:31.012Z,91.00
2023-03-27T05:13:31.102Z,91.10
2023-03-27T05:14:31.184Z,91.20
2023-03-27T05:15:31.254Z,91.00
2023-03-27T05:16:31.358Z,91.00
2023-03-27T05:17:31.431Z,91.00
2023-03-27T05:18:31.489Z,90.89
2023-03-27T05:19:31.558Z,90.83
2023-03-27T05:20:31.633Z,91.04
2023-03-27T05:21:31.691Z,91.10
2023-03-27T05:22:31.762Z,91.10
2023-03-27T05:23:31.850Z,91.14
2023-03-27T05:24:31.929Z,91.25
2023-03-27T05:25:32.016Z,91.25
2023-03-27T05:26:32.043Z,91.31
2023-03-27T05:27:32.103Z,91.20
2023-03-27T05:28:32.192Z,91.14
2023-03-27T05:29:47.233Z,91.00
2023-03-27T05:30:32.367Z,91.10
2023-03-27T05:31:32.397Z,91.10
2023-03-27T05:32:32.491Z,91.10
2023-03-27T05:33:32.535Z,91.31
2023-03-27T05:34:32.609Z,91.31
2023-03-27T05:35:32.709Z,91.31
2023-03-27T05:36:32.775Z,91.41
2023-03-27T05:37:32.829Z,91.62
2023-03-27T05:38:32.930Z,91.52
2023-03-27T05:39:32.975Z,91.72
2023-03-27T05:40:33.047Z,91.72
2023-03-27T05:41:33.093Z,91.52
2023-03-27T05:42:33.210Z,91.41
2023-03-27T05:43:33.286Z,91.41
2023-03-27T05:44:33.353Z,91.27
2023-03-27T05:45:33.411Z,91.37
2023-03-27T05:46:33.512Z,91.37
2023-03-27T05:47:33.562Z,91.37
2023-03-27T05:48:33.628Z,91.37
2023-03-27T05:49:34.266Z,91.37
2023-03-27T05:50:33.781Z,91.16
2023-03-27T05:51:33.840Z,91.27
2023-03-27T05:52:33.911Z,91.37
2023-03-27T05:53:33.976Z,91.33
2023-03-27T05:54:34.037Z,91.22
2023-03-27T05:55:34.102Z,91.12
2023-03-27T05:56:34.198Z,91.02
2023-03-27T05:57:34.217Z,90.91
2023-03-27T05:58:34.344Z,90.97
2023-03-27T05:59:34.791Z,90.97
2023-03-27T06:00:34.487Z,90.77
2023-03-27T06:01:34.534Z,90.72
2023-03-27T06:02:34.688Z,90.41
2023-03-27T06:03:34.992Z,90.31
2023-03-27T06:04:34.816Z,90.20
2023-03-27T06:05:34.860Z,90.16
2023-03-27T06:06:34.917Z,90.16
2023-03-27T06:07:34.981Z,90.16
2023-03-27T06:08:35.068Z,90.06
2023-03-27T06:09:35.123Z,90.06
2023-03-27T06:10:35.230Z,90.06
2023-03-27T06:11:35.289Z,89.85
2023-03-27T06:12:35.361Z,89.85
2023-03-27T06:13:35.471Z,89.75
2023-03-27T06:14:35.516Z,89.75
2023-03-27T06:15:35.624Z,90.02
2023-03-27T06:16:35.667Z,90.12
2023-03-27T06:17:35.777Z,90.12
2023-03-27T06:18:35.836Z,90.16
2023-03-27T06:19:35.894Z,90.23
2023-03-27T06:20:36.007Z,90.33
2023-03-27T06:21:36.065Z,90.54
2023-03-27T06:22:36.133Z,90.44
2023-03-27T06:23:36.209Z,90.44
2023-03-27T06:24:36.270Z,90.64
2023-03-27T06:25:36.323Z,90.75
2023-03-27T06:26:36.426Z,90.95
2023-03-27T06:27:36.482Z,91.16
2023-03-27T06:28:36.577Z,91.16
2023-03-27T06:29:36.630Z,91.16
2023-03-27T06:30:36.707Z,91.27
2023-03-27T06:31:36.860Z,91.37
2023-03-27T06:32:36.903Z,91.47
2023-03-27T06:33:36.936Z,91.58
2023-03-27T06:34:37.003Z,91.58
2023-03-27T06:35:37.084Z,91.58
2023-03-27T06:36:37.127Z,91.47
2023-03-27T06:37:37.194Z,91.47
2023-03-27T06:38:37.356Z,91.47
2023-03-27T06:39:37.372Z,91.58
2023-03-27T06:40:37.474Z,91.58
2023-03-27T06:41:37.530Z,91.33
2023-03-27T06:42:37.601Z,91.33
2023-03-27T06:43:37.672Z,91.43
2023-03-27T06:44:37.737Z,91.53
2023-03-27T06:45:37.793Z,91.43
2023-03-27T06:46:45.096Z,91.33
2023-03-27T06:47:44.373Z,91.18
2023-03-27T06:48:38.146Z,91.18
2023-03-27T06:49:38.146Z,91.18
2023-03-27T06:50:38.212Z,91.18
2023-03-27T06:51:38.291Z,91.39
2023-03-27T06:52:38.351Z,91.39
2023-03-27T06:53:38.441Z,91.28
2023-03-27T06:54:38.511Z,91.18
2023-03-27T06:55:38.569Z,90.97
2023-03-27T06:56:38.681Z,90.93
2023-03-27T06:57:38.703Z,91.03
2023-03-27T06:58:38.788Z,90.83
2023-03-27T06:59:38.865Z,90.72
2023-03-27T07:00:38.967Z,90.83
2023-03-27T07:01:39.111Z,90.69
2023-03-27T07:02:39.112Z,90.48
2023-03-27T07:03:39.190Z,90.33
2023-03-27T07:04:39.262Z,90.02
2023-03-27T07:05:39.418Z,89.92
2023-03-27T07:06:39.775Z,89.56
2023-03-27T07:07:41.463Z,89.25
2023-03-27T07:08:39.604Z,88.43
2023-03-27T07:09:40.139Z,84.03
2023-03-27T07:10:39.712Z,80.62
2023-03-27T07:11:39.775Z,79.86
2023-03-27T07:12:39.835Z,80.11
2023-03-27T07:13:39.940Z,81.21
2023-03-27T07:14:40.006Z,81.98
2023-03-27T07:15:40.063Z,83.05
2023-03-27T07:16:40.170Z,84.01
2023-03-27T07:17:48.590Z,84.68
2023-03-27T07:18:40.293Z,85.19
2023-03-27T07:19:40.349Z,85.55
2023-03-27T07:20:40.434Z,86.17
2023-03-27T07:21:40.539Z,86.44
2023-03-27T07:22:40.748Z,86.54
2023-03-27T07:23:40.688Z,86.29
2023-03-27T07:24:40.754Z,86.29
2023-03-27T07:25:40.802Z,86.15
2023-03-27T07:26:40.904Z,86.29
2023-03-27T07:27:40.964Z,86.19
2023-03-27T07:28:41.063Z,86.09
2023-03-27T07:29:41.083Z,86.29
2023-03-27T07:30:41.161Z,86.40
2023-03-27T07:31:55.583Z,86.33
2023-03-27T07:32:41.380Z,86.33
2023-03-27T07:33:41.496Z,86.85
2023-03-27T07:34:41.468Z,86.99
2023-03-27T07:35:41.544Z,87.20
2023-03-27T07:36:41.637Z,87.10
2023-03-27T07:37:41.700Z,87.20
2023-03-27T07:38:41.808Z,87.62
2023-03-27T07:39:41.874Z,87.72
2023-03-27T07:40:42.022Z,87.51
2023-03-27T07:41:42.017Z,87.30
2023-03-27T07:42:42.122Z,87.06
2023-03-27T07:43:42.194Z,86.75
2023-03-27T07:44:42.270Z,86.54
2023-03-27T07:45:42.401Z,86.65
2023-03-27T07:46:42.454Z,86.50
2023-03-27T07:47:42.520Z,86.44
2023-03-27T07:48:42.618Z,86.33
2023-03-27T07:49:42.639Z,86.40
2023-03-27T07:50:42.717Z,86.40
2023-03-27T07:51:42.789Z,86.05
2023-03-27T07:52:42.895Z,84.13
2023-03-27T07:53:42.993Z,82.17
2023-03-27T07:54:43.057Z,81.90
2023-03-27T07:55:43.110Z,82.73
2023-03-27T07:56:43.240Z,83.49
2023-03-27T07:57:58.104Z,83.65
2023-03-27T07:58:43.473Z,83.49
2023-03-27T07:59:43.410Z,83.90
2023-03-27T08:00:43.498Z,84.11
2023-03-27T08:01:43.558Z,83.59
2023-03-27T08:02:43.660Z,83.07
2023-03-27T08:03:43.874Z,83.80
2023-03-27T08:04:43.917Z,83.28
2023-03-27T08:05:43.930Z,82.66
2023-03-27T08:06:43.985Z,82.15
2023-03-27T08:07:44.044Z,82.52
2023-03-27T08:08:44.161Z,82.10
2023-03-27T08:09:44.225Z,79.83
2023-03-27T08:10:44.320Z,80.04
2023-03-27T08:11:44.373Z,80.24
2023-03-27T08:12:44.485Z,79.38
2023-03-27T08:13:44.577Z,79.07
2023-03-27T08:14:44.635Z,79.07
2023-03-27T08:15:44.695Z,78.97
2023-03-27T08:16:44.810Z,77.55
2023-03-27T08:17:44.895Z,75.73
2023-03-27T08:18:44.956Z,75.97
2023-03-27T08:19:45.010Z,77.38
2023-03-27T08:20:45.082Z,77.11
2023-03-27T08:21:45.142Z,77.15
2023-03-27T08:22:45.209Z,78.31
2023-03-27T08:23:45.321Z,79.18
2023-03-27T08:24:45.345Z,79.63
2023-03-27T08:25:45.400Z,80.18
2023-03-27T08:26:45.474Z,80.49
2023-03-27T08:27:45.532Z,80.60
2023-03-27T08:28:45.635Z,80.90
2023-03-27T08:29:45.758Z,81.01
2023-03-27T08:30:45.832Z,81.11
2023-03-27T08:31:45.874Z,81.01
2023-03-27T08:32:45.977Z,80.53
2023-03-27T08:33:46.046Z,80.60
2023-03-27T08:34:46.103Z,80.90
2023-03-27T08:35:46.222Z,80.80
2023-03-27T08:36:46.250Z,80.18
2023-03-27T08:37:46.312Z,80.08
2023-03-27T08:38:46.438Z,78.59
2023-03-27T08:39:46.493Z,75.63
2023-03-27T08:40:46.585Z,72.85
2023-03-27T08:41:46.654Z,74.53
2023-03-27T08:42:46.726Z,73.40
2023-03-27T08:43:46.810Z,70.56
2023-03-27T08:44:46.886Z,69.78
2023-03-27T08:45:46.952Z,66.61
2023-03-27T08:46:47.117Z,65.89
2023-03-27T08:47:47.211Z,65.71
2023-03-27T08:48:47.260Z,66.46
2023-03-27T08:49:47.314Z,67.44
2023-03-27T08:50:47.389Z,68.51
2023-03-27T08:51:47.478Z,69.18
2023-03-27T08:52:47.545Z,70.18
2023-03-27T08:53:47.647Z,70.62
2023-03-27T08:54:47.707Z,71.14
2023-03-27T08:55:47.771Z,71.44
2023-03-27T08:56:47.929Z,71.75
2023-03-27T08:57:47.985Z,71.17
2023-03-27T08:58:48.082Z,71.86
2023-03-27T08:59:48.143Z,71.65
2023-03-27T09:00:48.230Z,71.31
2023-03-27T09:01:48.351Z,70.28
2023-03-27T09:02:48.496Z,68.91
2023-03-27T09:03:48.651Z,67.65
2023-03-27T09:04:48.643Z,67.41
2023-03-27T09:05:48.642Z,66.90
2023-03-27T09:06:48.729Z,64.86
2023-03-27T09:07:48.817Z,63.65
2023-03-27T09:08:48.915Z,61.61
2023-03-27T09:09:48.973Z,59.62
2023-03-27T09:10:49.068Z,60.07
2023-03-27T09:11:49.151Z,58.85
2023-03-27T09:12:49.220Z,58.29
2023-03-27T09:13:49.353Z,59.09
2023-03-27T09:14:49.392Z,61.11
2023-03-27T09:15:49.524Z,60.46
2023-03-27T09:16:50.147Z,62.05
2023-03-27T09:17:49.732Z,62.90
2023-03-27T09:18:49.757Z,63.13
2023-03-27T09:19:49.836Z,61.96
2023-03-27T09:20:49.924Z,61.89
2023-03-27T09:21:50.009Z,63.18
2023-03-27T09:22:50.086Z,64.06
2023-03-27T09:23:50.184Z,64.81
2023-03-27T09:24:50.249Z,66.28
2023-03-27T09:25:50.331Z,67.65
2023-03-27T09:27:01.070Z,68.60
2023-03-27T09:27:50.504Z,66.75
2023-03-27T09:28:50.618Z,66.37
2023-03-27T09:29:50.682Z,66.40
2023-03-27T09:30:50.755Z,67.53
2023-03-27T09:31:50.922Z,68.59
2023-03-27T09:32:50.974Z,68.62
2023-03-27T09:33:51.032Z,69.59
2023-03-27T09:34:51.058Z,70.13
2023-03-27T09:35:51.204Z,71.61
2023-03-27T09:36:51.220Z,72.36
2023-03-27T09:37:51.309Z,72.67
2023-03-27T09:38:51.420Z,73.74
2023-03-27T09:39:51.528Z,74.26
2023-03-27T09:40:51.531Z,74.05
2023-03-27T09:41:51.647Z,74.46
2023-03-27T09:42:51.719Z,74.05
2023-03-27T09:43:51.823Z,74.36
2023-03-27T09:44:51.881Z,74.88
2023-03-27T09:45:51.950Z,75.49
2023-03-27T09:46:52.072Z,74.98
2023-03-27T09:47:52.179Z,74.98
2023-03-27T09:48:52.217Z,76.12
2023-03-27T09:49:52.286Z,75.49
2023-03-27T09:50:52.339Z,75.81
2023-03-27T09:51:52.456Z,75.91
2023-03-27T09:52:52.515Z,75.05
2023-03-27T09:53:52.602Z,74.33
2023-03-27T09:54:52.669Z,73.98
2023-03-27T09:55:52.833Z,74.12
2023-03-27T09:56:52.851Z,73.36
2023-03-27T09:57:52.940Z,72.96
2023-03-27T09:58:53.030Z,72.75
2023-03-27T09:59:53.097Z,71.72
2023-03-27T10:00:53.189Z,72.33
2023-03-27T10:01:53.270Z,71.10
2023-03-27T10:02:53.431Z,69.32
2023-03-27T10:03:53.447Z,70.25
2023-03-27T10:04:53.471Z,69.76
2023-03-27T10:05:53.549Z,69.49
2023-03-27T10:06:53.602Z,66.04
2023-03-27T10:07:53.701Z,64.61
2023-03-27T10:08:53.786Z,64.04
2023-03-27T10:09:53.849Z,61.93
2023-03-27T10:10:53.960Z,61.36
2023-03-27T10:11:54.009Z,60.42
2023-03-27T10:12:54.082Z,59.82
2023-03-27T10:13:54.194Z,58.80
2023-03-27T10:14:54.255Z,59.88
2023-03-27T10:15:54.362Z,60.35
2023-03-27T10:16:54.485Z,61.43
2023-03-27T10:17:54.501Z,62.19
2023-03-27T10:18:54.573Z,61.10
2023-03-27T10:19:54.634Z,61.85
2023-03-27T10:20:54.890Z,63.03
2023-03-27T10:21:54.885Z,63.71
2023-03-27T10:22:54.984Z,64.97
2023-03-27T10:23:54.976Z,64.04
2023-03-27T10:24:55.014Z,64.56
2023-03-27T10:25:55.105Z,64.81
2023-03-27T10:26:55.168Z,64.23
2023-03-27T10:27:55.272Z,63.66
2023-03-27T10:28:55.344Z,62.68
2023-03-27T10:29:55.437Z,60.02
2023-03-27T10:30:55.801Z,60.19
2023-03-27T10:31:55.638Z,58.66
2023-03-27T10:32:55.727Z,59.30
2023-03-27T10:33:55.795Z,59.71
2023-03-27T10:34:55.858Z,59.05
2023-03-27T10:35:55.985Z,59.92
2023-03-27T10:36:55.985Z,59.50
2023-03-27T10:37:56.075Z,59.89
2023-03-27T10:38:56.159Z,59.58
2023-03-27T10:39:56.214Z,59.71
2023-03-27T10:40:56.525Z,60.10
2023-03-27T10:41:56.355Z,60.91
2023-03-27T10:42:56.428Z,61.52
2023-03-27T10:43:56.507Z,60.40
2023-03-27T10:44:56.567Z,58.56
2023-03-27T10:45:56.690Z,60.30
2023-03-27T10:46:56.764Z,61.52
2023-03-27T10:47:56.859Z,61.11
2023-03-27T10:48:56.895Z,60.74
2023-03-27T10:49:56.945Z,61.25
2023-03-27T10:50:57.190Z,59.92
2023-03-27T10:51:57.156Z,58.69
2023-03-27T10:52:57.208Z,58.17
2023-03-27T10:53:59.376Z,57.97
2023-03-27T10:54:57.355Z,57.84
2023-03-27T10:55:57.448Z,58.56
2023-03-27T10:56:57.565Z,59.27
2023-03-27T10:57:57.625Z,58.58
2023-03-27T10:58:57.691Z,58.48
2023-03-27T10:59:57.796Z,57.59
2023-03-27T11:00:58.043Z,58.74
2023-03-27T11:01:57.990Z,60.28
2023-03-27T11:02:58.040Z,61.00
2023-03-27T11:03:58.207Z,58.92
2023-03-27T11:04:58.200Z,59.05
2023-03-27T11:05:58.254Z,58.30
2023-03-27T11:06:58.326Z,57.20
2023-03-27T11:07:58.419Z,58.61
2023-03-27T11:08:58.502Z,58.00
2023-03-27T11:09:58.639Z,57.05
2023-03-27T11:10:58.839Z,56.02
2023-03-27T11:11:58.829Z,57.05
2023-03-27T11:12:58.842Z,56.64
2023-03-27T11:13:58.945Z,57.97
2023-03-27T11:14:59.053Z,58.28
2023-03-27T11:15:59.111Z,58.23
2023-03-27T11:16:59.272Z,56.79
2023-03-27T11:17:59.299Z,57.54
2023-03-27T11:18:59.331Z,59.08
2023-03-27T11:19:59.462Z,59.28
2023-03-27T11:20:59.511Z,59.20
2023-03-27T11:21:59.612Z,58.90
2023-03-27T11:22:59.658Z,58.28
2023-03-27T11:23:59.807Z,58.69
2023-03-27T11:24:59.898Z,57.39
2023-03-27T11:25:59.877Z,56.15
2023-03-27T11:26:59.960Z,57.36
2023-03-27T11:28:00.017Z,58.49
2023-03-27T11:29:00.116Z,59.00
2023-03-27T11:30:00.200Z,59.54
2023-03-27T11:31:12.001Z,59.75
2023-03-27T11:32:00.343Z,59.03
2023-03-27T11:33:00.461Z,58.75
2023-03-27T11:34:00.480Z,59.26
2023-03-27T11:35:02.677Z,60.16
2023-03-27T11:36:00.716Z,58.00
2023-03-27T11:37:00.753Z,59.95
2023-03-27T11:38:00.819Z,57.87
2023-03-27T11:39:00.908Z,58.49
2023-03-27T11:40:00.991Z,58.41
2023-03-27T11:41:01.057Z,56.90
2023-03-27T11:42:01.136Z,58.23
2023-03-27T11:43:01.199Z,59.67
2023-03-27T11:44:01.281Z,59.06
2023-03-27T11:45:01.366Z,58.85
2023-03-27T11:46:01.436Z,59.06
2023-03-27T11:47:01.503Z,57.82
2023-03-27T11:48:01.691Z,58.23
2023-03-27T11:49:01.680Z,58.67
2023-03-27T11:50:01.770Z,58.67
2023-03-27T11:51:01.841Z,59.19
2023-03-27T11:52:01.924Z,61.58
2023-03-27T11:53:01.999Z,64.25
2023-03-27T11:54:02.089Z,65.31
2023-03-27T11:55:02.165Z,67.60
2023-03-27T11:56:02.242Z,68.46
2023-03-27T11:57:02.348Z,70.21
2023-03-27T11:58:02.387Z,71.06
2023-03-27T11:59:02.454Z,71.37
2023-03-27T12:00:02.544Z,72.51
2023-03-27T12:01:02.610Z,73.19
2023-03-27T12:02:02.785Z,74.53
2023-03-27T12:03:02.851Z,74.43
2023-03-27T12:04:02.908Z,74.08
2023-03-27T12:05:02.918Z,73.36
2023-03-27T12:06:02.985Z,72.81
2023-03-27T12:07:04.973Z,69.18
2023-03-27T12:08:03.145Z,69.09
2023-03-27T12:09:03.219Z,69.87
2023-03-27T12:10:03.316Z,69.23
2023-03-27T12:11:03.378Z,68.78
2023-03-27T12:12:03.450Z,67.32
2023-03-27T12:13:03.534Z,65.64
2023-03-27T12:14:08.914Z,64.38
2023-03-27T12:15:03.700Z,65.30
2023-03-27T12:16:03.818Z,61.69
2023-03-27T12:17:03.840Z,62.61
2023-03-27T12:18:04.011Z,60.94
2023-03-27T12:19:10.662Z,61.25
2023-03-27T12:20:04.105Z,58.69
2023-03-27T12:21:04.465Z,57.28
2023-03-27T12:22:09.280Z,58.81
2023-03-27T12:23:04.332Z,60.66
2023-03-27T12:24:04.420Z,62.10
2023-03-27T12:25:04.567Z,61.58
2023-03-27T12:26:04.577Z,61.71
2023-03-27T12:27:04.642Z,62.33
2023-03-27T12:28:04.738Z,62.61
2023-03-27T12:29:23.859Z,62.92
2023-03-27T12:30:04.928Z,61.99
2023-03-27T12:31:04.974Z,61.99
2023-03-27T12:32:05.150Z,60.58
2023-03-27T12:33:05.180Z,59.97
2023-03-27T12:34:05.214Z,60.49
2023-03-27T12:35:05.304Z,61.13
2023-03-27T12:36:05.425Z,61.92
2023-03-27T12:37:05.422Z,62.54
2023-03-27T12:38:05.502Z,61.82
2023-03-27T12:39:05.579Z,61.48
2023-03-27T12:40:05.708Z,60.56
2023-03-27T12:41:05.754Z,58.72
2023-03-27T12:42:05.838Z,58.79
2023-03-27T12:43:05.915Z,59.20
2023-03-27T12:44:06.020Z,58.89
2023-03-27T12:45:06.159Z,59.89
2023-03-27T12:46:06.497Z,59.45
2023-03-27T12:47:08.942Z,58.20
2023-03-27T12:48:06.402Z,56.46
2023-03-27T12:49:06.432Z,56.87
2023-03-27T12:50:06.584Z,56.35
2023-03-27T12:51:06.594Z,56.56
2023-03-27T12:52:06.658Z,57.79
2023-03-27T12:53:06.714Z,57.07